createdAt,value
2023-05-25T00:01:01.802Z,96643.44
2023-05-25T00:02:07.275Z,96636.09
2023-05-25T00:03:10.132Z,96641.50
2023-05-25T00:04:17.341Z,96642.25
2023-05-25T00:05:20.974Z,96641.50
2023-05-25T00:06:22.971Z,96636.81
2023-05-25T00:07:24.576Z,96636.03
2023-05-25T00:08:26.151Z,96639.91
2023-05-25T00:09:27.789Z,96636.00
2023-05-25T00:10:29.443Z,96636.72
2023-05-25T00:11:31.014Z,96642.84
2023-05-25T00:12:33.552Z,96643.56
2023-05-25T00:13:35.503Z,96646.56
2023-05-25T00:14:37.085Z,96644.22
2023-05-25T00:15:38.646Z,96641.44
2023-05-25T00:16:40.806Z,96644.50
2023-05-25T00:17:43.177Z,96638.25
2023-05-25T00:18:45.583Z,96640.16
2023-05-25T00:19:47.518Z,96640.91
2023-05-25T00:20:49.096Z,96631.22
2023-05-25T00:21:51.258Z,96637.81
2023-05-25T00:22:56.228Z,96639.34
2023-05-25T00:23:57.822Z,96632.78
2023-05-25T00:24:59.429Z,96639.06
2023-05-25T00:26:03.414Z,96634.94
2023-05-25T00:27:07.028Z,96635.34
2023-05-25T00:28:08.652Z,96640.44
2023-05-25T00:29:10.214Z,96640.84
2023-05-25T00:30:12.200Z,96635.84
2023-05-25T00:31:13.936Z,96641.28
2023-05-25T00:32:15.821Z,96640.16
2023-05-25T00:33:17.433Z,96644.44
2023-05-25T00:34:19.087Z,96642.56
2023-05-25T00:35:20.738Z,96646.84
2023-05-25T00:36:22.350Z,96646.88
2023-05-25T00:37:23.951Z,96649.63
2023-05-25T00:38:25.696Z,96647.69
2023-05-25T00:39:28.112Z,96654.28
2023-05-25T00:40:29.867Z,96643.78
2023-05-25T00:41:32.219Z,96649.25
2023-05-25T00:42:33.990Z,96650.03
2023-05-25T00:43:35.726Z,96653.16
2023-05-25T00:44:37.381Z,96647.75
2023-05-25T00:45:39.165Z,96651.63
2023-05-25T00:46:48.029Z,96652.41
2023-05-25T00:47:51.977Z,96657.03
2023-05-25T00:48:55.093Z,96654.69
2023-05-25T00:49:57.801Z,96665.50
2023-05-25T00:51:00.116Z,96660.03
2023-05-25T00:52:01.981Z,96667.00
2023-05-25T00:53:04.650Z,96664.28
2023-05-25T00:54:06.502Z,96658.47
2023-05-25T00:55:11.787Z,96654.97
2023-05-25T00:56:13.913Z,96660.03
2023-05-25T00:57:21.157Z,96657.31
2023-05-25T00:58:27.110Z,96660.03
2023-05-25T00:59:42.126Z,96663.13
2023-05-25T01:00:46.258Z,96657.72
2023-05-25T01:01:49.805Z,96660.81
2023-05-25T01:02:53.188Z,96660.84
2023-05-25T01:03:57.703Z,96658.50
2023-05-25T01:05:02.702Z,96657.75
2023-05-25T01:06:09.725Z,96664.72
2023-05-25T01:07:17.704Z,96663.97
2023-05-25T01:08:22.719Z,96662.81
2023-05-25T01:09:27.240Z,96664.75
2023-05-25T01:10:33.334Z,96669.41
2023-05-25T01:11:37.366Z,96671.72
2023-05-25T01:12:40.643Z,96677.97
2023-05-25T01:13:43.215Z,96682.22
2023-05-25T01:14:48.240Z,96678.72
2023-05-25T01:15:51.327Z,96674.44
2023-05-25T01:16:55.224Z,96676.75
2023-05-25T01:17:59.740Z,96684.84
2023-05-25T01:19:02.398Z,96676.69
2023-05-25T01:20:11.327Z,96686.31
2023-05-25T01:21:22.173Z,96684.69
2023-05-25T01:22:40.481Z,96685.47
2023-05-25T01:23:47.996Z,96680.84
2023-05-25T01:24:56.060Z,96680.09
2023-05-25T01:26:00.248Z,96681.97
2023-05-25T01:27:09.212Z,96677.75
2023-05-25T01:28:18.579Z,96676.13
2023-05-25T01:29:22.893Z,96678.44
2023-05-25T01:30:26.484Z,96675.31
2023-05-25T01:31:29.710Z,96684.56
2023-05-25T01:32:32.563Z,96679.88
2023-05-25T01:33:36.305Z,96678.34
2023-05-25T01:34:39.783Z,96677.56
2023-05-25T01:35:42.175Z,96678.34
2023-05-25T01:36:43.926Z,96679.16
2023-05-25T01:37:46.920Z,96679.16
2023-05-25T01:38:49.448Z,96677.22
2023-05-25T01:39:51.182Z,96683.78
2023-05-25T01:40:52.788Z,96684.97
2023-05-25T01:41:54.403Z,96685.34
2023-05-25T01:42:56.035Z,96685.34
2023-05-25T01:43:57.780Z,96684.63
2023-05-25T01:45:00.204Z,96683.84
2023-05-25T01:46:26.853Z,96691.19
2023-05-25T01:47:40.914Z,96691.94
2023-05-25T01:48:58.556Z,96687.69
2023-05-25T01:50:43.431Z,96686.91
2023-05-25T01:51:59.939Z,96684.22
2023-05-25T01:53:09.642Z,96683.06
2023-05-25T01:54:19.729Z,96683.47
2023-05-25T01:55:22.791Z,96690.06
2023-05-25T01:56:27.375Z,96684.63
2023-05-25T01:57:29.766Z,96688.50
2023-05-25T01:58:38.982Z,96692.38
2023-05-25T01:59:43.495Z,96687.72
2023-05-25T02:00:48.938Z,96692.00
2023-05-25T02:01:53.487Z,96689.28
2023-05-25T02:02:57.004Z,96685.34
2023-05-25T02:03:59.514Z,96681.28
2023-05-25T02:05:01.848Z,96676.56
2023-05-25T02:06:03.746Z,96679.28
2023-05-25T02:07:06.310Z,96677.38
2023-05-25T02:08:08.010Z,96682.06
2023-05-25T02:09:09.797Z,96678.94
2023-05-25T02:10:11.494Z,96678.59
2023-05-25T02:11:14.774Z,96679.00
2023-05-25T02:12:16.469Z,96684.44
2023-05-25T02:13:18.149Z,96682.94
2023-05-25T02:14:19.832Z,96684.50
2023-05-25T02:15:22.640Z,96682.97
2023-05-25T02:16:24.350Z,96682.97
2023-05-25T02:17:30.301Z,96675.88
2023-05-25T02:18:32.134Z,96676.59
2023-05-25T02:19:33.879Z,96690.47
2023-05-25T02:20:37.538Z,96688.91
2023-05-25T02:21:39.228Z,96683.13
2023-05-25T02:22:41.007Z,96676.56
2023-05-25T02:23:43.535Z,96690.88
2023-05-25T02:24:45.077Z,96690.97
2023-05-25T02:25:46.784Z,96683.63
2023-05-25T02:26:48.433Z,96691.00
2023-05-25T02:27:50.755Z,96687.13
2023-05-25T02:28:52.366Z,96688.69
2023-05-25T02:29:54.021Z,96696.41
2023-05-25T02:30:55.768Z,96689.06
2023-05-25T02:31:57.346Z,96684.00
2023-05-25T02:32:58.929Z,96686.69
2023-05-25T02:34:00.634Z,96693.69
2023-05-25T02:35:02.200Z,96690.63
2023-05-25T02:36:05.329Z,96686.34
2023-05-25T02:37:06.965Z,96689.84
2023-05-25T02:38:08.628Z,96689.06
2023-05-25T02:39:11.447Z,96693.31
2023-05-25T02:40:13.964Z,96690.63
2023-05-25T02:41:21.784Z,96689.78
2023-05-25T02:42:23.376Z,96700.56
2023-05-25T02:43:24.935Z,96700.50
2023-05-25T02:44:26.543Z,96696.94
2023-05-25T02:45:28.160Z,96703.88
2023-05-25T02:46:29.830Z,96697.91
2023-05-25T02:47:31.626Z,96707.44
2023-05-25T02:48:33.268Z,96709.22
2023-05-25T02:49:34.914Z,96704.13
2023-05-25T02:50:37.116Z,96708.22
2023-05-25T02:51:38.738Z,96710.91
2023-05-25T02:52:40.711Z,96701.97
2023-05-25T02:53:42.334Z,96712.00
2023-05-25T02:54:43.927Z,96709.63
2023-05-25T02:55:45.772Z,96704.97
2023-05-25T02:56:47.555Z,96701.81
2023-05-25T02:57:49.197Z,96708.34
2023-05-25T02:58:50.877Z,96714.06
2023-05-25T02:59:52.809Z,96712.44
2023-05-25T03:00:55.409Z,96713.53
2023-05-25T03:01:58.772Z,96706.88
2023-05-25T03:03:00.439Z,96714.47
2023-05-25T03:04:02.221Z,96715.94
2023-05-25T03:05:04.842Z,96713.63
2023-05-25T03:06:06.673Z,96716.66
2023-05-25T03:07:08.232Z,96714.25
2023-05-25T03:08:09.813Z,96716.56
2023-05-25T03:09:12.437Z,96720.50
2023-05-25T03:10:14.010Z,96722.13
2023-05-25T03:11:15.592Z,96722.13
2023-05-25T03:12:17.208Z,96720.63
2023-05-25T03:13:18.776Z,96726.84
2023-05-25T03:14:20.491Z,96722.03
2023-05-25T03:15:23.180Z,96726.41
2023-05-25T03:16:26.049Z,96723.06
2023-05-25T03:17:27.794Z,96726.28
2023-05-25T03:18:29.406Z,96722.00
2023-05-25T03:19:32.367Z,96725.94
2023-05-25T03:20:34.809Z,96727.47
2023-05-25T03:21:37.569Z,96729.84
2023-05-25T03:22:39.162Z,96729.50
2023-05-25T03:23:40.818Z,96729.13
2023-05-25T03:24:42.427Z,96728.31
2023-05-25T03:25:44.239Z,96719.63
2023-05-25T03:26:46.129Z,96729.56
2023-05-25T03:27:47.680Z,96730.38
2023-05-25T03:28:49.215Z,96733.88
2023-05-25T03:29:51.016Z,96728.09
2023-05-25T03:30:52.632Z,96726.59
2023-05-25T03:31:54.201Z,96729.78
2023-05-25T03:32:55.833Z,96733.31
2023-05-25T03:33:57.452Z,96732.56
2023-05-25T03:34:59.043Z,96734.53
2023-05-25T03:36:00.784Z,96729.94
2023-05-25T03:37:02.360Z,96732.69
2023-05-25T03:38:03.963Z,96738.50
2023-05-25T03:39:06.144Z,96740.03
2023-05-25T03:40:09.576Z,96737.81
2023-05-25T03:41:11.790Z,96742.44
2023-05-25T03:42:13.389Z,96744.72
2023-05-25T03:43:14.986Z,96753.53
2023-05-25T03:44:16.686Z,96755.38
2023-05-25T03:45:18.486Z,96756.03
2023-05-25T03:46:20.129Z,96756.34
2023-05-25T03:47:21.815Z,96755.94
2023-05-25T03:48:23.490Z,96762.94
2023-05-25T03:49:25.074Z,96756.03
2023-05-25T03:50:26.666Z,96752.25
2023-05-25T03:51:29.476Z,96762.41
2023-05-25T03:52:31.162Z,96760.56
2023-05-25T03:53:32.747Z,96755.66
2023-05-25T03:54:34.353Z,96760.34
2023-05-25T03:55:38.601Z,96761.19
2023-05-25T03:56:40.339Z,96760.09
2023-05-25T03:57:42.389Z,96756.22
2023-05-25T03:58:43.969Z,96760.38
2023-05-25T03:59:45.611Z,96758.41
2023-05-25T04:00:49.796Z,96761.16
2023-05-25T04:01:51.814Z,96761.22
2023-05-25T04:02:53.473Z,96764.03
2023-05-25T04:03:55.370Z,96761.72
2023-05-25T04:04:57.409Z,96765.16
2023-05-25T04:06:00.522Z,96762.78
2023-05-25T04:07:02.259Z,96762.22
2023-05-25T04:08:04.100Z,96761.34
2023-05-25T04:09:05.771Z,96762.19
2023-05-25T04:10:07.842Z,96765.72
2023-05-25T04:11:09.446Z,96765.59
2023-05-25T04:12:11.025Z,96762.88
2023-05-25T04:13:15.095Z,96765.19
2023-05-25T04:14:16.665Z,96771.66
2023-05-25T04:15:18.337Z,96773.97
2023-05-25T04:16:20.005Z,96773.06
2023-05-25T04:17:24.901Z,96759.28
2023-05-25T04:18:26.550Z,96774.94
2023-05-25T04:19:28.172Z,96768.78
2023-05-25T04:20:30.047Z,96776.31
2023-05-25T04:21:32.209Z,96775.72
2023-05-25T04:22:33.763Z,96775.44
2023-05-25T04:23:35.482Z,96775.53
2023-05-25T04:24:37.062Z,96771.75
2023-05-25T04:25:38.672Z,96773.47
2023-05-25T04:26:40.409Z,96772.84
2023-05-25T04:27:42.335Z,96771.38
2023-05-25T04:28:44.109Z,96773.78
2023-05-25T04:29:45.703Z,96771.97
2023-05-25T04:30:48.109Z,96776.28
2023-05-25T04:31:51.648Z,96775.94
2023-05-25T04:32:54.979Z,96778.66
2023-05-25T04:33:56.785Z,96782.97
2023-05-25T04:34:59.210Z,96778.38
2023-05-25T04:36:01.070Z,96783.81
2023-05-25T04:37:05.521Z,96785.00
2023-05-25T04:38:07.380Z,96784.94
2023-05-25T04:39:09.424Z,96790.31
2023-05-25T04:40:12.066Z,96790.34
2023-05-25T04:41:14.573Z,96786.88
2023-05-25T04:42:17.093Z,96788.84
2023-05-25T04:43:20.482Z,96791.94
2023-05-25T04:44:22.088Z,96788.88
2023-05-25T04:45:24.019Z,96792.00
2023-05-25T04:46:29.956Z,96785.41
2023-05-25T04:47:31.615Z,96788.16
2023-05-25T04:48:34.230Z,96794.38
2023-05-25T04:49:35.881Z,96782.34
2023-05-25T04:50:40.245Z,96784.31
2023-05-25T04:51:41.816Z,96790.56
2023-05-25T04:52:43.442Z,96785.94
2023-05-25T04:53:45.048Z,96792.13
2023-05-25T04:54:46.927Z,96788.63
2023-05-25T04:55:49.664Z,96790.97
2023-05-25T04:56:51.304Z,96792.13
2023-05-25T04:57:54.750Z,96789.03
2023-05-25T04:58:56.356Z,96792.16
2023-05-25T04:59:58.643Z,96796.03
2023-05-25T05:01:00.521Z,96794.47
2023-05-25T05:02:02.175Z,96796.81
2023-05-25T05:03:03.948Z,96792.53
2023-05-25T05:04:05.802Z,96796.41
2023-05-25T05:05:07.850Z,96801.41
2023-05-25T05:06:10.869Z,96797.50
2023-05-25T05:07:12.679Z,96799.81
2023-05-25T05:08:14.456Z,96806.84
2023-05-25T05:09:16.091Z,96799.50
2023-05-25T05:10:18.524Z,96806.50
2023-05-25T05:11:20.166Z,96804.56
2023-05-25T05:12:21.874Z,96813.91
2023-05-25T05:13:23.558Z,96810.00
2023-05-25T05:14:25.167Z,96809.25
2023-05-25T05:15:26.920Z,96807.28
2023-05-25T05:16:33.716Z,96803.06
2023-05-25T05:17:35.491Z,96802.28
2023-05-25T05:18:37.145Z,96806.13
2023-05-25T05:19:38.843Z,96805.38
2023-05-25T05:20:41.151Z,96812.38
2023-05-25T05:21:42.899Z,96798.78
2023-05-25T05:22:45.618Z,96803.47
2023-05-25T05:23:47.302Z,96804.59
2023-05-25T05:24:48.986Z,96799.94
2023-05-25T05:25:50.611Z,96801.47
2023-05-25T05:26:58.263Z,96798.34
2023-05-25T05:28:00.627Z,96806.09
2023-05-25T05:29:02.190Z,96805.28
2023-05-25T05:30:04.192Z,96797.50
2023-05-25T05:31:06.866Z,96798.66
2023-05-25T05:32:08.668Z,96799.00
2023-05-25T05:33:10.404Z,96802.09
2023-05-25T05:34:12.061Z,96798.94
2023-05-25T05:35:13.738Z,96808.25
2023-05-25T05:36:15.625Z,96806.28
2023-05-25T05:37:17.358Z,96796.53
2023-05-25T05:38:19.271Z,96801.22
2023-05-25T05:39:20.862Z,96799.94
2023-05-25T05:40:22.471Z,96798.66
2023-05-25T05:41:24.072Z,96800.13
2023-05-25T05:42:25.836Z,96793.00
2023-05-25T05:43:27.410Z,96789.72
2023-05-25T05:44:29.678Z,96798.16
2023-05-25T05:45:31.332Z,96789.09
2023-05-25T05:46:33.026Z,96787.81
2023-05-25T05:47:34.694Z,96789.34
2023-05-25T05:48:37.375Z,96796.34
2023-05-25T05:49:39.478Z,96791.66
2023-05-25T05:50:42.270Z,96793.19
2023-05-25T05:51:44.236Z,96786.88
2023-05-25T05:52:45.836Z,96786.88
2023-05-25T05:53:47.456Z,96786.75
2023-05-25T05:54:49.033Z,96788.25
2023-05-25T05:55:56.140Z,96792.06
2023-05-25T05:56:58.156Z,96790.34
2023-05-25T05:57:59.797Z,96795.00
2023-05-25T05:59:01.465Z,96793.34
2023-05-25T06:00:06.725Z,96793.34
2023-05-25T06:01:09.145Z,96793.25
2023-05-25T06:02:10.798Z,96797.53
2023-05-25T06:03:12.400Z,96800.13
2023-05-25T06:04:15.126Z,96796.56
2023-05-25T06:05:17.202Z,96793.69
2023-05-25T06:06:19.031Z,96797.44
2023-05-25T06:07:20.992Z,96794.22
2023-05-25T06:08:22.633Z,96797.56
2023-05-25T06:09:24.303Z,96797.16
2023-05-25T06:10:25.977Z,96790.91
2023-05-25T06:11:27.692Z,96792.56
2023-05-25T06:12:29.376Z,96792.78
2023-05-25T06:13:30.940Z,96791.84
2023-05-25T06:14:32.556Z,96799.91
2023-05-25T06:15:35.408Z,96798.00
2023-05-25T06:16:37.457Z,96794.53
2023-05-25T06:17:39.173Z,96795.28
2023-05-25T06:18:40.894Z,96795.13
2023-05-25T06:19:42.887Z,96803.53
2023-05-25T06:20:44.782Z,96794.63
2023-05-25T06:21:46.500Z,96798.47
2023-05-25T06:22:48.154Z,96800.84
2023-05-25T06:23:49.780Z,96804.09
2023-05-25T06:24:51.630Z,96799.59
2023-05-25T06:25:54.482Z,96797.69
2023-05-25T06:26:56.207Z,96801.81
2023-05-25T06:27:57.876Z,96794.13
2023-05-25T06:28:59.465Z,96791.91
2023-05-25T06:30:01.102Z,96790.25
2023-05-25T06:31:02.731Z,96796.38
2023-05-25T06:32:04.734Z,96792.34
2023-05-25T06:33:08.584Z,96793.19
2023-05-25T06:34:10.442Z,96790.88
2023-05-25T06:35:19.546Z,96788.19
2023-05-25T06:36:22.115Z,96787.72
2023-05-25T06:37:23.823Z,96789.91
2023-05-25T06:38:25.506Z,96784.94
2023-05-25T06:39:27.110Z,96791.63
2023-05-25T06:40:28.701Z,96787.38
2023-05-25T06:41:30.961Z,96793.41
2023-05-25T06:42:32.545Z,96785.47
2023-05-25T06:43:34.175Z,96782.19
2023-05-25T06:44:35.876Z,96787.16
2023-05-25T06:45:37.498Z,96783.88
2023-05-25T06:46:39.945Z,96781.34
2023-05-25T06:47:41.672Z,96784.78
2023-05-25T06:48:43.640Z,96781.38
2023-05-25T06:49:45.232Z,96785.00
2023-05-25T06:50:46.801Z,96786.63
2023-05-25T06:51:49.100Z,96786.41
2023-05-25T06:52:51.272Z,96776.88
2023-05-25T06:53:56.027Z,96775.41
2023-05-25T06:54:58.269Z,96775.31
2023-05-25T06:55:59.937Z,96776.94
2023-05-25T06:57:01.548Z,96776.13
2023-05-25T06:58:03.269Z,96774.84
2023-05-25T06:59:05.447Z,96773.47
2023-05-25T07:00:13.532Z,96766.06
2023-05-25T07:01:16.026Z,96770.31
2023-05-25T07:02:18.916Z,96774.25
2023-05-25T07:03:21.017Z,96770.69
2023-05-25T07:04:23.300Z,96769.78
2023-05-25T07:05:25.117Z,96772.81
2023-05-25T07:06:26.751Z,96768.84
2023-05-25T07:07:28.348Z,96765.31
2023-05-25T07:08:30.071Z,96769.75
2023-05-25T07:09:31.819Z,96770.59
2023-05-25T07:10:33.982Z,96767.84
2023-05-25T07:11:35.696Z,96755.22
2023-05-25T07:12:37.310Z,96754.84
2023-05-25T07:13:38.987Z,96755.63
2023-05-25T07:14:40.733Z,96764.91
2023-05-25T07:15:42.563Z,96753.47
2023-05-25T07:16:45.321Z,96757.94
2023-05-25T07:17:47.422Z,96754.03
2023-05-25T07:18:49.118Z,96751.97
2023-05-25T07:19:51.094Z,96753.16
2023-05-25T07:20:53.604Z,96745.06
2023-05-25T07:21:55.200Z,96747.50
2023-05-25T07:22:56.874Z,96754.81
2023-05-25T07:23:58.521Z,96748.22
2023-05-25T07:25:00.289Z,96745.69
2023-05-25T07:26:04.986Z,96745.16
2023-05-25T07:27:08.302Z,96739.22
2023-05-25T07:28:09.906Z,96748.50
2023-05-25T07:29:12.620Z,96745.00
2023-05-25T07:30:14.444Z,96738.88
2023-05-25T07:31:16.542Z,96737.00
2023-05-25T07:32:18.123Z,96746.72
2023-05-25T07:33:19.788Z,96746.31
2023-05-25T07:34:21.420Z,96738.47
2023-05-25T07:35:23.014Z,96735.44
2023-05-25T07:36:25.053Z,96735.44
2023-05-25T07:37:26.782Z,96745.56
2023-05-25T07:38:28.381Z,96735.16
2023-05-25T07:39:29.953Z,96743.38
2023-05-25T07:40:31.597Z,96737.59
2023-05-25T07:41:33.784Z,96742.47
2023-05-25T07:42:35.597Z,96736.22
2023-05-25T07:43:37.507Z,96737.31
2023-05-25T07:44:39.105Z,96740.66
2023-05-25T07:45:40.738Z,96735.53
2023-05-25T07:46:43.167Z,96733.84
2023-05-25T07:47:44.870Z,96729.13
2023-05-25T07:48:46.557Z,96730.88
2023-05-25T07:49:48.144Z,96738.78
2023-05-25T07:50:49.731Z,96731.25
2023-05-25T07:51:51.382Z,96727.75
2023-05-25T07:52:53.001Z,96731.47
2023-05-25T07:53:56.592Z,96729.91
2023-05-25T07:54:58.283Z,96721.13
2023-05-25T07:55:59.905Z,96720.13
2023-05-25T07:57:01.666Z,96725.97
2023-05-25T07:58:03.819Z,96721.81
2023-05-25T07:59:06.170Z,96717.66
2023-05-25T08:00:09.419Z,96709.28
2023-05-25T08:01:10.979Z,96709.38
2023-05-25T08:02:12.654Z,96713.56
2023-05-25T08:03:14.374Z,96709.41
2023-05-25T08:04:16.245Z,96708.88
2023-05-25T08:05:17.995Z,96710.06
2023-05-25T08:06:19.711Z,96706.25
2023-05-25T08:07:21.608Z,96710.91
2023-05-25T08:08:24.804Z,96707.38
2023-05-25T08:09:26.355Z,96703.63
2023-05-25T08:10:32.198Z,96696.50
2023-05-25T08:11:33.822Z,96699.56
2023-05-25T08:12:47.699Z,96694.75
2023-05-25T08:13:51.232Z,96696.94
2023-05-25T08:14:54.169Z,96694.00
2023-05-25T08:15:55.842Z,96695.56
2023-05-25T08:16:57.424Z,96693.28
2023-05-25T08:17:59.180Z,96697.03
2023-05-25T08:19:01.722Z,96696.88
2023-05-25T08:20:06.242Z,96698.97
2023-05-25T08:21:07.874Z,96691.38
2023-05-25T08:22:09.609Z,96696.75
2023-05-25T08:23:11.299Z,96694.13
2023-05-25T08:24:12.881Z,96696.25
2023-05-25T08:25:14.547Z,96692.00
2023-05-25T08:26:34.221Z,96690.91
2023-05-25T08:27:38.007Z,96699.81
2023-05-25T08:28:39.720Z,96699.38
2023-05-25T08:29:41.321Z,96694.66
2023-05-25T08:30:44.712Z,96694.66
2023-05-25T08:31:49.628Z,96700.16
2023-05-25T08:32:51.623Z,96695.84
2023-05-25T08:33:53.362Z,96694.88
2023-05-25T08:34:55.006Z,96695.31
2023-05-25T08:35:57.114Z,96688.28
2023-05-25T08:36:58.768Z,96689.16
2023-05-25T08:38:00.726Z,96691.25
2023-05-25T08:39:04.661Z,96692.69
2023-05-25T08:40:15.181Z,96686.19
2023-05-25T08:41:16.992Z,96681.63
2023-05-25T08:42:18.699Z,96689.16
2023-05-25T08:43:20.420Z,96680.41
2023-05-25T08:44:22.313Z,96688.59
2023-05-25T08:45:35.254Z,96689.06
2023-05-25T08:46:38.470Z,96679.81
2023-05-25T08:47:44.775Z,96685.44
2023-05-25T08:48:49.310Z,96673.50
2023-05-25T08:49:52.854Z,96676.84
2023-05-25T08:50:55.073Z,96676.50
2023-05-25T08:51:57.510Z,96685.19
2023-05-25T08:53:03.426Z,96677.94
2023-05-25T08:54:14.017Z,96674.19
2023-05-25T08:55:18.506Z,96675.69
2023-05-25T08:56:20.769Z,96672.16
2023-05-25T08:57:57.899Z,96670.28
2023-05-25T08:59:08.573Z,96678.59
2023-05-25T09:00:14.319Z,96668.16
2023-05-25T09:01:20.038Z,96671.34
2023-05-25T09:02:42.383Z,96662.66
2023-05-25T09:03:46.313Z,96662.66
2023-05-25T09:04:48.133Z,96666.03
2023-05-25T09:05:50.807Z,96660.75
2023-05-25T09:07:58.935Z,96657.97
2023-05-25T09:09:00.641Z,96656.81
2023-05-25T09:10:03.033Z,96654.75
2023-05-25T09:11:07.635Z,96655.34
2023-05-25T09:12:09.984Z,96659.75
2023-05-25T09:13:20.453Z,96654.56
2023-05-25T09:14:24.366Z,96652.50
2023-05-25T09:15:26.068Z,96647.56
2023-05-25T09:16:28.231Z,96655.38
2023-05-25T09:17:30.381Z,96650.75
2023-05-25T09:18:32.154Z,96656.59
2023-05-25T09:19:36.504Z,96649.34
2023-05-25T09:20:38.219Z,96650.09
2023-05-25T09:21:40.314Z,96647.56
2023-05-25T09:22:42.430Z,96653.72
2023-05-25T09:23:45.702Z,96646.31
2023-05-25T09:24:47.869Z,96646.97
2023-05-25T09:25:51.112Z,96643.13
2023-05-25T09:26:52.731Z,96641.94
2023-05-25T09:27:56.354Z,96639.97
2023-05-25T09:28:58.021Z,96644.28
2023-05-25T09:30:01.154Z,96639.44
2023-05-25T09:31:02.795Z,96637.44
2023-05-25T09:32:08.533Z,96636.97
2023-05-25T09:33:14.359Z,96636.97
2023-05-25T09:34:16.003Z,96634.22
2023-05-25T09:35:17.812Z,96640.50
2023-05-25T09:36:22.053Z,96643.38
2023-05-25T09:37:24.061Z,96638.09
2023-05-25T09:38:26.070Z,96638.88
2023-05-25T09:39:28.274Z,96640.72
2023-05-25T09:40:33.233Z,96635.22
2023-05-25T09:41:35.080Z,96624.44
2023-05-25T09:42:38.028Z,96632.19
2023-05-25T09:43:46.748Z,96632.72
2023-05-25T09:44:58.905Z,96630.59
2023-05-25T09:46:00.939Z,96630.91
2023-05-25T09:47:02.957Z,96629.25
2023-05-25T09:48:06.310Z,96629.03
2023-05-25T09:49:09.370Z,96624.06
2023-05-25T09:50:11.788Z,96620.25
2023-05-25T09:51:13.406Z,96627.41
2023-05-25T09:52:15.859Z,96629.09
2023-05-25T09:53:17.463Z,96622.50
2023-05-25T09:54:19.253Z,96610.72
2023-05-25T09:55:20.825Z,96624.69
2023-05-25T09:56:23.931Z,96620.75
2023-05-25T09:57:27.318Z,96627.31
2023-05-25T09:58:29.009Z,96627.75
2023-05-25T09:59:31.268Z,96622.88
2023-05-25T10:00:33.298Z,96614.19
2023-05-25T10:01:35.342Z,96626.53
2023-05-25T10:02:37.074Z,96624.09
2023-05-25T10:04:03.010Z,96623.94
2023-05-25T10:05:07.492Z,96617.56
2023-05-25T10:06:09.311Z,96611.31
2023-05-25T10:07:11.902Z,96622.41
2023-05-25T10:08:14.140Z,96619.91
2023-05-25T10:09:18.963Z,96617.13
2023-05-25T10:10:20.685Z,96613.47
2023-05-25T10:11:22.905Z,96608.53
2023-05-25T10:12:25.953Z,96610.22
2023-05-25T10:13:30.626Z,96612.56
2023-05-25T10:14:35.892Z,96621.59
2023-05-25T10:15:40.862Z,96624.78
2023-05-25T10:16:47.536Z,96621.16
2023-05-25T10:17:58.482Z,96624.75
2023-05-25T10:19:22.095Z,96629.50
2023-05-25T10:20:28.280Z,96628.81
2023-05-25T10:21:33.281Z,96622.09
2023-05-25T10:22:44.524Z,96629.88
2023-05-25T10:23:50.760Z,96625.66
2023-05-25T10:25:04.129Z,96625.53
2023-05-25T10:26:06.829Z,96627.94
2023-05-25T10:27:25.649Z,96631.72
2023-05-25T10:28:31.367Z,96630.78
2023-05-25T10:29:33.713Z,96636.03
2023-05-25T10:30:37.146Z,96630.63
2023-05-25T10:31:39.804Z,96630.97
2023-05-25T10:32:44.383Z,96627.69
2023-05-25T10:33:50.555Z,96632.63
2023-05-25T10:34:56.694Z,96631.91
2023-05-25T10:36:09.281Z,96620.75
2023-05-25T10:37:14.399Z,96621.53
2023-05-25T10:38:18.532Z,96630.97
2023-05-25T10:39:20.466Z,96627.78
2023-05-25T10:40:22.961Z,96636.34
2023-05-25T10:41:24.592Z,96638.66
2023-05-25T10:42:27.960Z,96636.50
2023-05-25T10:43:30.248Z,96636.72
2023-05-25T10:44:31.953Z,96639.53
2023-05-25T10:45:34.105Z,96640.00
2023-05-25T10:46:36.655Z,96635.84
2023-05-25T10:47:44.142Z,96637.19
2023-05-25T10:48:48.551Z,96637.66
2023-05-25T10:49:58.697Z,96629.50
2023-05-25T10:51:00.538Z,96636.56
2023-05-25T10:52:03.647Z,96631.59
2023-05-25T10:53:16.139Z,96640.50
2023-05-25T10:54:19.714Z,96642.72
2023-05-25T10:55:21.586Z,96631.84
2023-05-25T10:56:23.214Z,96639.50
2023-05-25T10:57:25.647Z,96637.53
2023-05-25T10:58:28.445Z,96641.91
2023-05-25T10:59:30.069Z,96632.69
2023-05-25T11:00:32.167Z,96622.59
2023-05-25T11:01:51.248Z,96613.47
2023-05-25T11:02:55.688Z,96618.81
2023-05-25T11:04:17.271Z,96644.38
2023-05-25T11:05:27.925Z,96645.06
2023-05-25T11:06:41.772Z,96645.59
2023-05-25T11:07:57.380Z,96646.34
2023-05-25T11:09:00.600Z,96645.31
2023-05-25T11:10:03.487Z,96644.78
2023-05-25T11:11:05.125Z,96649.63
2023-05-25T11:12:06.986Z,96652.53
2023-05-25T11:13:39.718Z,96650.34
2023-05-25T11:14:43.587Z,96670.06
2023-05-25T11:15:45.421Z,96672.78
2023-05-25T11:17:11.567Z,96687.34
2023-05-25T11:18:16.568Z,96668.94
2023-05-25T11:19:18.384Z,96676.53
2023-05-25T11:20:24.320Z,96690.06
2023-05-25T11:21:30.216Z,96670.09
2023-05-25T11:22:35.494Z,96668.69
2023-05-25T11:23:52.082Z,96674.13
2023-05-25T11:24:54.007Z,96665.66
2023-05-25T11:26:05.042Z,96671.38
2023-05-25T11:27:08.837Z,96678.00
2023-05-25T11:28:11.984Z,96675.25
2023-05-25T11:29:15.829Z,96675.50
2023-05-25T11:30:20.574Z,96688.13
2023-05-25T11:31:39.099Z,96701.41
2023-05-25T11:32:50.630Z,96697.69
2023-05-25T11:33:57.509Z,96697.38
2023-05-25T11:34:59.533Z,96693.91
2023-05-25T11:36:01.609Z,96709.94
2023-05-25T11:37:04.192Z,96701.03
2023-05-25T11:38:07.170Z,96699.88
2023-05-25T11:39:16.937Z,96694.88
2023-05-25T11:40:24.147Z,96705.00
2023-05-25T11:41:26.255Z,96708.13
2023-05-25T11:42:29.234Z,96712.78
2023-05-25T11:43:34.150Z,96705.00
2023-05-25T11:44:36.873Z,96707.72
2023-05-25T11:45:39.363Z,96706.53
2023-05-25T11:46:43.761Z,96703.81
2023-05-25T11:47:45.772Z,96708.50
2023-05-25T11:48:54.696Z,96701.06
2023-05-25T11:49:56.590Z,96712.34
2023-05-25T11:51:06.054Z,96709.59
2023-05-25T11:52:07.871Z,96710.38
2023-05-25T11:53:10.890Z,96706.84
2023-05-25T11:54:24.625Z,96700.97
2023-05-25T11:55:26.524Z,96711.88
2023-05-25T11:56:35.714Z,96709.88
2023-05-25T11:57:37.867Z,96706.38
2023-05-25T11:58:40.106Z,96711.03
2023-05-25T11:59:48.995Z,96709.44
2023-05-25T12:00:50.701Z,96687.66
2023-05-25T12:02:18.828Z,96698.91
2023-05-25T12:03:32.015Z,96703.16
2023-05-25T12:04:34.209Z,96705.81
2023-05-25T12:05:39.743Z,96711.22
2023-05-25T12:06:41.794Z,96705.72
2023-05-25T12:07:44.827Z,96699.84
2023-05-25T12:08:46.580Z,96702.91
2023-05-25T12:09:48.220Z,96693.94
2023-05-25T12:10:52.524Z,96703.28
2023-05-25T12:11:54.184Z,96709.16
2023-05-25T12:12:58.598Z,96705.22
2023-05-25T12:14:03.500Z,96699.34
2023-05-25T12:15:05.728Z,96712.19
2023-05-25T12:16:07.456Z,96697.00
2023-05-25T12:17:10.554Z,96702.84
2023-05-25T12:18:12.500Z,96702.06
2023-05-25T12:19:14.520Z,96699.81
2023-05-25T12:20:17.579Z,96699.78
2023-05-25T12:21:21.825Z,96689.59
2023-05-25T12:22:23.533Z,96696.66
2023-05-25T12:23:25.723Z,96700.53
2023-05-25T12:24:27.391Z,96706.03
2023-05-25T12:25:38.759Z,96693.53
2023-05-25T12:26:59.182Z,96689.63
2023-05-25T12:28:14.888Z,96695.09